Time;durP1;ratioP1;P1;durP2;ratioP2;P2;SDS_P1;SDS_P2;PMS_P1;PMS_P2;Temp;Humidity;BMP_temperature;BMP_pressure;BME280_temperature;BME280_humidity;BME280_pressure;Samples;Min_cycle;Max_cycle;Signal;HPM_P1;HPM_P2
2023/03/15 00:00:41;;;;;;;8.45;1.80;;;0.70;99.90;;;;;;5069597;28;20127;-40
2023/03/15 00:03:07;;;;;;;14.05;2.30;;;0.60;99.90;;;;;;5069988;28;20118;-40
2023/03/15 00:05:33;;;;;;;6.57;0.77;;;0.70;99.90;;;;;;5069345;28;20055;-40
2023/03/15 00:08:00;;;;;;;10.02;0.80;;;0.60;99.90;;;;;;5069303;28;20045;-40
2023/03/15 00:10:27;;;;;;;6.70;1.70;;;0.70;99.90;;;;;;5068978;28;20044;-40
2023/03/15 00:12:53;;;;;;;6.50;0.68;;;1.40;99.90;;;;;;5069152;28;20079;-40
2023/03/15 00:15:19;;;;;;;9.05;0.95;;;0.60;99.90;;;;;;5069292;28;20076;-40
2023/03/15 00:17:45;;;;;;;9.57;1.15;;;0.80;99.90;;;;;;5068200;28;20078;-40
2023/03/15 00:20:13;;;;;;;3.85;0.52;;;0.70;99.90;;;;;;5069156;28;20048;-40
2023/03/15 00:22:39;;;;;;;9.60;0.77;;;0.70;99.90;;;;;;5068253;28;20044;-40
2023/03/15 00:25:06;;;;;;;4.03;0.43;;;0.90;99.90;;;;;;5068825;28;20101;-40
2023/03/15 00:27:32;;;;;;;4.80;0.47;;;0.80;99.90;;;;;;5050315;28;20040;-40
2023/03/15 00:29:57;;;;;;;9.93;1.65;;;0.90;99.90;;;;;;5068383;28;20101;-40
2023/03/15 00:32:23;;;;;;;9.52;2.25;;;0.10;99.90;;;;;;5068680;28;20048;-40
2023/03/15 00:34:49;;;;;;;5.93;0.90;;;1.10;99.90;;;;;;5068888;28;20052;-40
2023/03/15 00:37:18;;;;;;;10.70;1.55;;;1.20;99.90;;;;;;5068699;28;20776;-40
2023/03/15 00:39:47;;;;;;;11.20;1.15;;;1.30;99.90;;;;;;5050043;28;20059;-40
2023/03/15 00:42:14;;;;;;;5.60;1.25;;;1.40;99.90;;;;;;5068385;28;20048;-40
2023/03/15 00:44:43;;;;;;;11.43;0.60;;;1.40;99.90;;;;;;5068147;28;20070;-40
2023/03/15 00:47:10;;;;;;;9.85;0.85;;;1.60;99.90;;;;;;5057224;28;20406;-40
2023/03/15 00:49:36;;;;;;;7.90;0.73;;;1.90;99.90;;;;;;5048270;28;20731;-40
2023/03/15 00:52:02;;;;;;;5.35;0.90;;;2.00;99.90;;;;;;5048116;28;20045;-40
2023/03/15 00:54:27;;;;;;;9.90;1.10;;;1.20;99.90;;;;;;5047990;28;20044;-40
2023/03/15 00:56:53;;;;;;;7.88;1.00;;;1.20;99.90;;;;;;5047557;28;20133;-40
2023/03/15 00:59:20;;;;;;;10.63;0.63;;;1.10;99.90;;;;;;5048053;28;20430;-40
2023/03/15 01:01:46;;;;;;;4.70;0.47;;;1.10;99.90;;;;;;5047547;28;20049;-40
2023/03/15 01:04:12;;;;;;;5.72;0.60;;;0.90;99.90;;;;;;5048253;28;20048;-40
2023/03/15 01:06:41;;;;;;;4.78;0.85;;;0.90;99.90;;;;;;5047781;28;20037;-40
2023/03/15 01:09:10;;;;;;;8.68;1.00;;;0.90;99.90;;;;;;5047091;28;20198;-40
2023/03/15 01:11:35;;;;;;;8.15;1.10;;;0.80;99.90;;;;;;5047536;28;20049;-40
2023/03/15 01:14:03;;;;;;;7.75;0.63;;;0.60;99.90;;;;;;5047912;28;20055;-40
2023/03/15 01:16:30;;;;;;;8.95;0.52;;;0.60;99.90;;;;;;5047931;28;20119;-40
2023/03/15 01:18:56;;;;;;;8.35;0.55;;;0.50;99.90;;;;;;5047339;28;20049;-40
2023/03/15 01:21:22;;;;;;;5.03;0.77;;;0.40;99.90;;;;;;5047873;28;20051;-40
2023/03/15 01:23:49;;;;;;;9.77;0.50;;;0.40;99.90;;;;;;5047302;28;20065;-40
2023/03/15 01:26:16;;;;;;;6.20;0.35;;;0.30;99.90;;;;;;5047283;28;20056;-40
2023/03/15 01:28:42;;;;;;;9.25;0.70;;;0.30;99.90;;;;;;5047431;28;20056;-40
2023/03/15 01:31:24;;;;;;;6.50;0.63;;;0.20;99.90;;;;;;5039243;28;20094;-40
2023/03/15 01:33:49;;;;;;;9.32;0.52;;;0.10;99.90;;;;;;5047134;28;20045;-40
2023/03/15 01:36:15;;;;;;;7.35;0.70;;;0.10;99.90;;;;;;5047208;28;20075;-40
2023/03/15 01:38:41;;;;;;;11.88;0.68;;;0.10;99.90;;;;;;5047325;28;20096;-40
2023/03/15 01:41:07;;;;;;;13.27;0.77;;;0.10;99.90;;;;;;5047076;28;20037;-40
2023/03/15 01:43:33;;;;;;;11.50;0.40;;;0.10;99.90;;;;;;5047272;28;20041;-40
2023/03/15 01:46:04;;;;;;;10.95;0.60;;;0.10;99.90;;;;;;5047555;28;20079;-40
2023/03/15 01:48:45;;;;;;;5.40;0.55;;;0.00;99.90;;;;;;5067557;28;20141;-40
2023/03/15 01:51:29;;;;;;;10.32;1.33;;;0.30;99.90;;;;;;5059395;28;20048;-40
2023/03/15 01:54:09;;;;;;;11.13;0.60;;;0.30;99.90;;;;;;5067161;28;20514;-40
2023/03/15 01:56:39;;;;;;;6.18;0.82;;;0.30;99.90;;;;;;5067362;28;20040;-40
2023/03/15 01:59:09;;;;;;;8.73;0.38;;;0.40;99.90;;;;;;5067379;28;20059;-40
2023/03/15 02:01:36;;;;;;;10.25;0.60;;;0.40;99.90;;;;;;5067402;28;20051;-40
2023/03/15 02:04:09;;;;;;;11.80;0.60;;;0.30;99.90;;;;;;5066766;28;20079;-40
2023/03/15 02:06:36;;;;;;;2.72;0.20;;;0.40;99.90;;;;;;5066565;28;20044;-40
2023/03/15 02:09:07;;;;;;;6.82;0.30;;;0.30;99.90;;;;;;5065646;28;20048;-40
2023/03/15 02:11:34;;;;;;;8.32;0.70;;;0.10;99.90;;;;;;5066614;28;20076;-40
2023/03/15 02:14:02;;;;;;;8.85;1.02;;;0.20;99.90;;;;;;5066362;28;20044;-40
2023/03/15 02:16:29;;;;;;;5.32;0.68;;;0.20;99.90;;;;;;5066236;28;20048;-40
2023/03/15 02:18:55;;;;;;;4.60;0.20;;;0.00;99.90;;;;;;5066695;28;20052;-40
2023/03/15 02:22:02;;;;;;;9.05;0.40;;;0.00;99.90;;;;;;5067279;28;20051;-40
2023/03/15 02:24:54;;;;;;;9.23;1.17;;;-0.20;99.90;;;;;;4984608;28;20042;-40
2023/03/15 02:27:30;;;;;;;8.20;1.38;;;-0.40;99.90;;;;;;5035579;28;20185;-40
2023/03/15 02:29:56;;;;;;;4.95;0.35;;;-0.30;99.90;;;;;;5065250;28;20048;-40
2023/03/15 02:32:22;;;;;;;6.30;0.40;;;-0.30;99.90;;;;;;5066810;28;20044;-40
2023/03/15 02:34:48;;;;;;;7.32;1.05;;;-0.10;99.90;;;;;;5066081;28;20379;-40
2023/03/15 02:37:13;;;;;;;7.47;0.40;;;-0.30;99.90;;;;;;5066505;28;20086;-40
2023/03/15 02:39:39;;;;;;;8.45;0.40;;;-0.40;99.90;;;;;;5066475;28;20514;-40
2023/03/15 02:42:05;;;;;;;14.07;0.80;;;;;;;;;;5047406;28;20199;-40
2023/03/15 02:44:33;;;;;;;6.35;0.57;;;;;;;;;;5066425;28;20441;-40
2023/03/15 02:47:26;;;;;;;10.32;0.82;;;-0.50;99.90;;;;;;5056404;28;20253;-40
2023/03/15 02:49:52;;;;;;;7.70;0.70;;;-0.50;99.90;;;;;;5042790;28;20049;-40
2023/03/15 02:52:19;;;;;;;10.90;0.55;;;-0.40;99.90;;;;;;5046080;28;20134;-40
2023/03/15 02:54:45;;;;;;;14.38;2.63;;;-0.50;99.90;;;;;;5046293;28;20600;-40
2023/03/15 02:57:15;;;;;;;9.25;0.60;;;-0.40;99.90;;;;;;5046276;28;20052;-40
2023/03/15 02:59:41;;;;;;;9.80;0.47;;;-0.40;99.90;;;;;;5046035;28;20057;-40
2023/03/15 03:02:10;;;;;;;6.57;0.30;;;-0.40;99.90;;;;;;5046555;28;20040;-40
2023/03/15 03:04:36;;;;;;;16.55;0.90;;;-0.70;99.90;;;;;;5046745;28;20083;-40
2023/03/15 03:07:02;;;;;;;6.25;0.43;;;;;;;;;;5028223;28;20076;-40
2023/03/15 03:09:28;;;;;;;10.15;1.80;;;;;;;;;;5046882;28;20040;-40
2023/03/15 03:11:54;;;;;;;8.57;0.50;;;-0.80;99.90;;;;;;5046849;28;20044;-40
2023/03/15 03:14:22;;;;;;;13.13;1.42;;;-0.70;99.90;;;;;;5046677;28;20188;-40
2023/03/15 03:16:48;;;;;;;9.18;0.80;;;-0.80;99.90;;;;;;5046038;28;20049;-40
2023/03/15 03:19:14;;;;;;;10.43;0.68;;;-0.80;99.90;;;;;;5045895;28;20487;-40
2023/03/15 03:21:43;;;;;;;10.30;1.70;;;-0.80;99.90;;;;;;5046569;28;20041;-40
2023/03/15 03:24:09;;;;;;;9.45;0.63;;;-0.90;99.90;;;;;;5046293;28;20780;-40
2023/03/15 03:26:36;;;;;;;4.18;0.50;;;-1.00;99.90;;;;;;5046746;28;20037;-40
2023/03/15 03:29:04;;;;;;;12.93;1.10;;;-1.00;99.90;;;;;;5046429;28;20098;-40
2023/03/15 03:31:32;;;;;;;9.77;1.30;;;-1.00;99.90;;;;;;5047976;28;20045;-40
2023/03/15 03:33:58;;;;;;;9.05;0.50;;;-1.00;99.90;;;;;;5049796;28;20058;-40
2023/03/15 03:36:24;;;;;;;9.90;0.50;;;-1.10;99.90;;;;;;5049804;28;20029;-40
2023/03/15 03:38:50;;;;;;;15.38;0.52;;;-1.10;99.90;;;;;;5049695;28;20053;-40
2023/03/15 03:41:16;;;;;;;12.98;0.70;;;-1.10;99.90;;;;;;5049570;28;20037;-40
2023/03/15 03:43:43;;;;;;;10.30;0.60;;;-1.10;99.90;;;;;;5049322;28;21065;-40
2023/03/15 03:46:09;;;;;;;8.02;1.92;;;-1.10;99.90;;;;;;5049393;28;20112;-40
2023/03/15 03:48:34;;;;;;;8.00;0.57;;;-1.20;99.90;;;;;;5064865;28;20135;-40
2023/03/15 03:51:00;;;;;;;7.93;0.68;;;-1.10;99.90;;;;;;5069561;28;20128;-40
2023/03/15 03:53:26;;;;;;;13.43;0.70;;;-1.10;99.90;;;;;;5069436;28;20074;-40
2023/03/15 03:55:53;;;;;;;8.32;0.52;;;-1.20;99.90;;;;;;5069211;28;20040;-40
2023/03/15 03:58:19;;;;;;;9.13;0.70;;;-1.10;99.90;;;;;;5068233;28;20076;-40
2023/03/15 04:00:45;;;;;;;8.32;0.40;;;-1.20;99.90;;;;;;5069460;28;20044;-40
2023/03/15 04:03:11;;;;;;;10.38;1.08;;;-1.20;99.90;;;;;;5068879;28;20429;-40
2023/03/15 04:05:36;;;;;;;9.60;0.45;;;-1.30;99.90;;;;;;5069599;28;20604;-40
2023/03/15 04:08:02;;;;;;;8.90;0.50;;;-1.30;99.90;;;;;;5068903;28;20122;-40
2023/03/15 04:10:28;;;;;;;9.07;1.40;;;-1.30;99.90;;;;;;5069241;28;20364;-40
2023/03/15 04:12:55;;;;;;;10.30;0.45;;;-1.40;99.90;;;;;;5068882;28;20055;-40
2023/03/15 04:15:21;;;;;;;13.43;0.65;;;-1.40;99.90;;;;;;5068675;28;20448;-40
2023/03/15 04:17:48;;;;;;;8.32;0.22;;;-1.40;99.90;;;;;;5068366;28;20044;-40
2023/03/15 04:20:16;;;;;;;5.38;0.40;;;-1.40;99.90;;;;;;5068115;28;20041;-40
2023/03/15 04:22:48;;;;;;;6.65;0.50;;;-1.40;99.90;;;;;;5068900;28;20098;-40
2023/03/15 04:25:15;;;;;;;7.18;1.10;;;-1.40;99.90;;;;;;5067897;28;20475;-40
2023/03/15 04:27:41;;;;;;;10.13;0.32;;;-1.40;99.90;;;;;;5050366;28;20496;-41
2023/03/15 04:30:07;;;;;;;10.73;0.32;;;-1.40;99.90;;;;;;5068269;28;20044;-41
2023/03/15 04:32:33;;;;;;;6.60;1.42;;;-1.50;99.90;;;;;;5050711;28;20186;-40
2023/03/15 04:35:00;;;;;;;13.55;0.70;;;-1.50;99.90;;;;;;5067845;28;20648;-40
2023/03/15 04:37:27;;;;;;;15.18;0.60;;;-1.50;99.90;;;;;;5050306;28;20124;-40
2023/03/15 04:39:53;;;;;;;12.38;1.20;;;-1.60;99.90;;;;;;5068654;28;20549;-40
2023/03/15 04:42:19;;;;;;;5.45;0.63;;;-1.60;99.90;;;;;;5068259;28;20119;-40
2023/03/15 04:44:46;;;;;;;12.93;1.35;;;-1.60;99.90;;;;;;5067838;28;20037;-40
2023/03/15 04:47:11;;;;;;;11.43;0.52;;;-1.60;99.90;;;;;;5056962;28;20072;-40
2023/03/15 04:49:37;;;;;;;6.85;0.52;;;-1.60;99.90;;;;;;5048831;28;20045;-40
2023/03/15 04:52:03;;;;;;;11.52;0.80;;;-1.60;99.90;;;;;;5048508;28;20045;-40
2023/03/15 04:54:29;;;;;;;11.40;0.93;;;-1.80;99.90;;;;;;5047978;28;20079;-40
2023/03/15 04:56:54;;;;;;;18.48;1.95;;;-1.80;99.90;;;;;;5047857;28;20691;-40
2023/03/15 04:59:20;;;;;;;11.07;0.57;;;-1.80;99.90;;;;;;5047698;28;20045;-40
2023/03/15 05:01:46;;;;;;;8.05;1.08;;;-1.80;99.90;;;;;;5048108;28;20083;-40
2023/03/15 05:04:12;;;;;;;8.90;0.90;;;-1.80;99.90;;;;;;5029686;28;20041;-40
2023/03/15 05:06:38;;;;;;;11.60;0.50;;;-1.80;99.90;;;;;;5030184;28;20081;-40
2023/03/15 05:09:03;;;;;;;14.70;1.10;;;-1.60;99.90;;;;;;5048766;28;20041;-40
2023/03/15 05:11:30;;;;;;;11.13;0.77;;;-1.40;99.90;;;;;;5030417;28;20072;-40
2023/03/15 05:13:55;;;;;;;6.07;0.50;;;-1.50;99.90;;;;;;5047880;28;20090;-40
2023/03/15 05:16:21;;;;;;;8.82;0.40;;;-1.50;99.90;;;;;;5047937;28;20045;-40
2023/03/15 05:18:47;;;;;;;5.68;0.45;;;-1.60;99.90;;;;;;5047754;28;20536;-40
2023/03/15 05:21:12;;;;;;;12.45;0.75;;;-1.60;99.90;;;;;;5047413;28;20072;-40
2023/03/15 05:23:38;;;;;;;10.65;0.70;;;-1.60;99.90;;;;;;5047555;28;20466;-40
2023/03/15 05:26:04;;;;;;;7.43;0.40;;;-1.70;99.90;;;;;;5047995;28;20072;-40
2023/03/15 05:28:30;;;;;;;9.80;0.47;;;-1.60;99.90;;;;;;5047591;28;20052;-40
2023/03/15 05:30:56;;;;;;;6.70;0.40;;;-1.70;99.90;;;;;;5047424;28;20048;-40
2023/03/15 05:33:23;;;;;;;5.80;0.50;;;-1.70;99.90;;;;;;5047177;28;20037;-40
2023/03/15 05:35:49;;;;;;;5.80;0.35;;;-1.70;99.90;;;;;;5047456;28;20269;-40
2023/03/15 05:38:15;;;;;;;4.95;1.20;;;-1.70;99.90;;;;;;5046907;28;20182;-39
2023/03/15 05:40:45;;;;;;;6.82;0.50;;;-1.70;99.90;;;;;;5047063;28;20037;-40
2023/03/15 05:43:11;;;;;;;7.45;1.08;;;-1.60;99.90;;;;;;5047386;28;20123;-40
2023/03/15 05:45:37;;;;;;;8.05;0.40;;;-1.60;99.90;;;;;;5047459;28;20120;-40
2023/03/15 05:48:04;;;;;;;5.53;0.50;;;-1.60;99.90;;;;;;5065459;28;20149;-40
2023/03/15 05:50:31;;;;;;;7.28;0.90;;;-1.60;99.90;;;;;;5067657;28;20045;-40
2023/03/15 05:52:57;;;;;;;7.25;0.75;;;-1.50;99.90;;;;;;5067432;28;20044;-40
2023/03/15 05:55:23;;;;;;;7.50;0.77;;;-1.40;99.90;;;;;;5066412;28;20051;-40
2023/03/15 05:57:49;;;;;;;12.00;0.55;;;-1.30;99.90;;;;;;5048648;28;20048;-40
2023/03/15 06:00:15;;;;;;;5.57;0.50;;;-1.10;99.90;;;;;;5066762;28;20051;-40
2023/03/15 06:02:42;;;;;;;5.82;0.50;;;-0.90;99.90;;;;;;5066232;28;20190;-40
2023/03/15 06:05:08;;;;;;;7.65;0.40;;;-0.80;99.90;;;;;;5058314;28;20044;-40
2023/03/15 06:07:33;;;;;;;6.55;0.40;;;-0.80;99.90;;;;;;5066527;28;20055;-40
2023/03/15 06:09:59;;;;;;;5.47;0.55;;;-0.50;99.90;;;;;;5066472;28;20039;-41
2023/03/15 06:12:25;;;;;;;6.85;0.80;;;-0.20;99.90;;;;;;5048062;28;20049;-40
2023/03/15 06:14:50;;;;;;;9.77;0.98;;;0.00;99.90;;;;;;5066517;28;20051;-41
2023/03/15 06:17:16;;;;;;;8.63;0.70;;;0.10;99.90;;;;;;5065724;28;20033;-41
2023/03/15 06:19:42;;;;;;;8.27;0.57;;;0.00;99.90;;;;;;5066045;28;20044;-41
2023/03/15 06:22:08;;;;;;;12.07;0.63;;;0.00;99.90;;;;;;5066352;28;20500;-41
2023/03/15 06:24:34;;;;;;;9.07;0.52;;;-0.30;99.90;;;;;;5065784;28;20044;-41
2023/03/15 06:26:59;;;;;;;9.57;0.52;;;-0.40;99.90;;;;;;5066264;28;20119;-41
2023/03/15 06:29:25;;;;;;;13.73;0.70;;;-0.50;99.90;;;;;;5066122;28;20093;-41
2023/03/15 06:31:51;;;;;;;11.20;0.68;;;0.00;99.90;;;;;;5066372;28;20466;-40
2023/03/15 06:34:18;;;;;;;9.35;0.70;;;-0.60;99.90;;;;;;5065947;28;20124;-41
2023/03/15 06:36:44;;;;;;;9.55;0.82;;;-0.60;99.90;;;;;;5065888;28;20783;-41
2023/03/15 06:39:11;;;;;;;12.35;1.13;;;-0.60;99.90;;;;;;5066493;28;20080;-41
2023/03/15 06:41:37;;;;;;;10.82;1.40;;;-0.50;99.90;;;;;;5066094;28;20463;-41
2023/03/15 06:44:03;;;;;;;6.18;1.50;;;-0.40;99.90;;;;;;5065000;28;20057;-41
2023/03/15 06:46:29;;;;;;;9.88;1.30;;;-0.40;99.90;;;;;;5059992;28;20057;-41
2023/03/15 06:48:55;;;;;;;10.18;1.33;;;-0.40;99.90;;;;;;5046486;28;20048;-41
2023/03/15 06:51:21;;;;;;;9.45;0.70;;;-0.40;99.90;;;;;;5046341;28;20515;-41
2023/03/15 06:53:47;;;;;;;6.07;0.85;;;-0.40;99.90;;;;;;5045589;28;20048;-40
2023/03/15 06:56:12;;;;;;;6.85;0.50;;;-0.40;99.90;;;;;;5045843;28;20468;-41
2023/03/15 06:58:38;;;;;;;4.50;0.88;;;-0.40;99.90;;;;;;5045670;28;20546;-41
2023/03/15 07:01:04;;;;;;;8.88;0.70;;;-0.30;99.90;;;;;;5045745;28;20183;-41
2023/03/15 07:03:30;;;;;;;7.40;1.58;;;-0.30;99.90;;;;;;5045342;28;20473;-41
2023/03/15 07:05:55;;;;;;;9.65;1.17;;;-0.30;99.90;;;;;;5046438;28;20071;-41
2023/03/15 07:08:23;;;;;;;7.43;1.20;;;-0.20;99.90;;;;;;5050238;28;20045;-41
2023/03/15 07:10:49;;;;;;;9.77;1.42;;;-0.10;99.90;;;;;;5049997;28;20438;-41
2023/03/15 07:13:16;;;;;;;5.95;0.57;;;0.10;99.90;;;;;;5049932;28;20045;-41
2023/03/15 07:15:41;;;;;;;7.53;0.80;;;0.50;99.90;;;;;;5048650;28;20067;-41
2023/03/15 07:18:07;;;;;;;9.27;2.58;;;0.80;99.90;;;;;;5049441;28;20044;-41
2023/03/15 07:20:33;;;;;;;5.20;0.80;;;1.20;99.90;;;;;;5049819;28;20086;-41
2023/03/15 07:22:59;;;;;;;6.20;0.73;;;1.00;99.90;;;;;;5049896;28;20032;-41
2023/03/15 07:25:24;;;;;;;9.80;0.98;;;1.20;99.90;;;;;;5049664;28;20584;-41
2023/03/15 07:27:51;;;;;;;9.98;0.70;;;1.40;99.90;;;;;;5031560;28;20470;-41
2023/03/15 07:30:18;;;;;;;4.43;0.43;;;1.90;99.90;;;;;;5049736;28;20048;-41
2023/03/15 07:32:44;;;;;;;7.90;1.13;;;2.00;99.90;;;;;;5049604;28;20053;-41
2023/03/15 07:35:10;;;;;;;4.40;1.98;;;2.70;99.90;;;;;;5049602;28;20114;-41
2023/03/15 07:37:35;;;;;;;7.18;0.50;;;2.70;99.90;;;;;;5048736;28;20454;-41
2023/03/15 07:40:08;;;;;;;8.23;1.13;;;2.40;99.90;;;;;;5048785;28;20422;-41
2023/03/15 07:42:40;;;;;;;9.93;2.25;;;2.10;99.90;;;;;;5048242;28;20124;-41
2023/03/15 07:45:07;;;;;;;3.95;0.43;;;1.90;99.90;;;;;;5048338;28;20742;-41
2023/03/15 07:47:33;;;;;;;6.47;1.05;;;2.00;99.90;;;;;;5062327;28;20409;-41
2023/03/15 07:49:59;;;;;;;5.45;0.60;;;2.10;99.90;;;;;;5068271;28;20045;-41
2023/03/15 07:52:25;;;;;;;3.88;0.60;;;2.10;99.90;;;;;;5069035;28;20044;-41
2023/03/15 07:54:51;;;;;;;4.82;0.35;;;2.00;99.90;;;;;;5069456;28;20149;-41
2023/03/15 07:57:17;;;;;;;3.13;0.32;;;2.20;99.90;;;;;;5069278;28;20044;-40
2023/03/15 07:59:42;;;;;;;4.07;0.30;;;2.20;99.90;;;;;;5069065;28;20444;-41
2023/03/15 08:02:13;;;;;;;7.25;0.40;;;2.30;99.90;;;;;;5068714;28;20045;-41
2023/03/15 08:04:39;;;;;;;4.28;0.32;;;2.50;99.90;;;;;;5068371;28;20044;-38
2023/03/15 08:07:05;;;;;;;8.02;0.68;;;2.60;99.90;;;;;;5068744;28;20036;-38
2023/03/15 08:09:33;;;;;;;5.95;0.40;;;2.80;99.90;;;;;;5068227;28;20052;-38
2023/03/15 08:12:00;;;;;;;5.80;0.93;;;3.00;99.90;;;;;;5067609;28;20947;-39
2023/03/15 08:14:26;;;;;;;8.60;0.90;;;3.50;99.90;;;;;;5068005;28;20139;-39
2023/03/15 08:16:52;;;;;;;7.88;1.20;;;3.50;99.90;;;;;;5067776;28;20082;-39
2023/03/15 08:19:18;;;;;;;7.38;0.68;;;3.90;99.90;;;;;;5068425;28;20776;-39
2023/03/15 08:21:44;;;;;;;6.28;0.52;;;4.10;99.90;;;;;;5068298;28;20431;-39
2023/03/15 08:24:14;;;;;;;6.53;0.60;;;5.10;99.90;;;;;;5050318;28;20091;-39
2023/03/15 08:26:42;;;;;;;10.93;1.40;;;4.80;99.90;;;;;;5067977;28;20075;-39
2023/03/15 08:29:08;;;;;;;2.95;0.20;;;4.90;99.90;;;;;;5068088;28;20566;-39
2023/03/15 08:31:33;;;;;;;9.02;0.60;;;5.70;99.90;;;;;;5047795;28;20127;-39
2023/03/15 08:33:59;;;;;;;7.28;0.50;;;6.10;99.90;;;;;;5067769;28;20070;-39
2023/03/15 08:36:25;;;;;;;7.85;0.43;;;5.90;99.90;;;;;;5067752;28;20055;-39
2023/03/15 08:38:50;;;;;;;7.10;0.70;;;6.10;99.90;;;;;;5067641;28;20543;-39
2023/03/15 08:41:16;;;;;;;9.68;2.45;;;6.90;99.90;;;;;;5049461;28;20127;-39
2023/03/15 08:43:42;;;;;;;9.75;1.13;;;8.00;99.90;;;;;;5067543;28;20533;-39
2023/03/15 08:46:07;;;;;;;24.95;1.92;;;8.20;99.90;;;;;;5064033;28;20040;-39
2023/03/15 08:48:33;;;;;;;7.63;0.75;;;8.20;99.90;;;;;;5047585;28;20059;-39
2023/03/15 08:51:03;;;;;;;18.70;2.45;;;8.10;99.90;;;;;;5047283;28;20045;-40
2023/03/15 08:53:30;;;;;;;8.98;0.90;;;7.80;99.90;;;;;;5047375;28;20056;-40
2023/03/15 08:55:56;;;;;;;7.43;0.60;;;7.30;99.90;;;;;;5047569;28;20076;-40
2023/03/15 08:58:22;;;;;;;9.05;1.02;;;8.50;99.90;;;;;;5047552;28;20045;-40
2023/03/15 09:00:48;;;;;;;10.35;3.42;;;8.20;99.90;;;;;;5046746;28;20059;-40
2023/03/15 09:03:15;;;;;;;7.50;0.45;;;7.60;99.90;;;;;;5046904;28;20040;-40
2023/03/15 09:05:41;;;;;;;11.55;1.17;;;7.80;99.90;;;;;;5046661;28;20127;-40
2023/03/15 09:08:06;;;;;;;7.57;0.60;;;7.90;99.90;;;;;;5047360;28;20677;-40
2023/03/15 09:10:33;;;;;;;6.45;0.60;;;7.90;99.90;;;;;;5047433;28;20041;-40
2023/03/15 09:12:59;;;;;;;8.52;0.40;;;8.00;99.90;;;;;;5047734;28;20101;-41
2023/03/15 09:15:25;;;;;;;11.73;0.70;;;8.00;99.90;;;;;;5047151;28;20076;-40
2023/03/15 09:17:51;;;;;;;9.55;0.60;;;7.50;99.90;;;;;;5046697;28;20090;-40
2023/03/15 09:20:20;;;;;;;9.32;2.00;;;8.00;99.90;;;;;;5047266;28;20120;-40
2023/03/15 09:22:54;;;;;;;3.50;1.05;;;7.70;99.90;;;;;;5046951;28;20083;-40
2023/03/15 09:25:20;;;;;;;8.68;0.90;;;7.50;99.90;;;;;;5046972;28;20041;-41
2023/03/15 09:27:46;;;;;;;9.77;1.42;;;7.40;99.90;;;;;;5046757;28;20041;-40
2023/03/15 09:30:12;;;;;;;7.07;0.60;;;7.30;99.90;;;;;;5046244;28;20491;-40
2023/03/15 09:32:38;;;;;;;7.53;0.70;;;8.10;99.90;;;;;;5047424;28;20102;-41
2023/03/15 09:35:07;;;;;;;7.03;0.90;;;9.00;99.90;;;;;;5028845;28;20044;-41
2023/03/15 09:37:33;;;;;;;8.25;0.60;;;;;;;;;;5047409;28;20045;-41
2023/03/15 09:39:59;;;;;;;6.93;0.50;;;7.70;99.90;;;;;;5047102;28;20040;-41
2023/03/15 09:42:46;;;;;;;11.23;1.98;;;8.40;99.90;;;;;;5046991;28;20411;-41
2023/03/15 09:45:20;;;;;;;6.95;0.73;;;8.00;99.90;;;;;;5046513;28;20430;-41
2023/03/15 09:48:04;;;;;;;7.55;0.90;;;7.60;99.90;;;;;;5062272;28;20131;-41
2023/03/15 09:50:52;;;;;;;7.15;0.50;;;7.60;99.90;;;;;;5066985;28;20048;-41
2023/03/15 09:53:23;;;;;;;4.72;0.63;;;7.90;99.90;;;;;;5059841;28;20032;-42
2023/03/15 09:55:50;;;;;;;5.68;0.60;;;9.10;99.90;;;;;;5066687;28;20041;-41
2023/03/15 09:58:24;;;;;;;2.95;0.50;;;9.50;99.90;;;;;;5066337;28;20056;-41
2023/03/15 10:00:55;;;;;;;6.00;0.82;;;10.10;99.90;;;;;;5066615;28;20245;-42
2023/03/15 10:03:41;;;;;;;4.20;0.30;;;10.60;99.90;;;;;;5066149;28;20044;-41
2023/03/15 10:06:15;;;;;;;4.05;0.30;;;11.00;99.90;;;;;;5066528;28;20032;-41
2023/03/15 10:08:41;;;;;;;4.55;0.60;;;10.90;99.40;;;;;;5066893;28;20112;-41
2023/03/15 10:11:32;;;;;;;6.30;0.55;;;11.00;99.90;;;;;;5057980;28;20036;-41
2023/03/15 10:14:01;;;;;;;6.32;0.88;;;11.10;99.00;;;;;;5066293;28;20048;-41
2023/03/15 10:16:37;;;;;;;5.20;0.30;;;11.30;98.00;;;;;;5066178;28;20132;-41
2023/03/15 10:19:24;;;;;;;5.93;0.43;;;11.30;98.40;;;;;;5065712;28;20134;-41
2023/03/15 10:22:02;;;;;;;4.05;0.50;;;11.20;97.70;;;;;;5066079;28;20036;-41
2023/03/15 10:25:00;;;;;;;6.93;0.55;;;11.40;98.50;;;;;;5065622;28;20045;-41
2023/03/15 10:27:41;;;;;;;2.50;0.40;;;11.70;97.90;;;;;;5058543;28;20590;-41
2023/03/15 10:30:20;;;;;;;4.70;0.40;;;11.70;97.20;;;;;;5047517;28;20055;-43
2023/03/15 10:32:54;;;;;;;5.38;0.52;;;12.00;96.80;;;;;;5065140;28;20278;-42
2023/03/15 10:35:20;;;;;;;5.68;0.32;;;12.30;95.20;;;;;;5064975;28;20046;-42
2023/03/15 10:37:46;;;;;;;4.57;0.35;;;11.90;94.80;;;;;;5065283;28;20044;-42
2023/03/15 10:40:16;;;;;;;4.50;0.22;;;11.30;94.40;;;;;;5065109;28;20057;-42
2023/03/15 10:42:46;;;;;;;4.78;0.20;;;11.00;94.60;;;;;;5069533;28;20041;-42
2023/03/15 10:45:17;;;;;;;5.13;0.20;;;10.50;94.80;;;;;;5070074;28;20423;-42
2023/03/15 10:47:43;;;;;;;7.47;0.47;;;10.60;95.70;;;;;;5054379;28;20513;-43
2023/03/15 10:50:15;;;;;;;4.63;0.68;;;10.20;96.10;;;;;;5050433;28;20048;-41
2023/03/15 10:52:43;;;;;;;3.47;0.70;;;10.60;97.40;;;;;;5050620;28;20041;-41
2023/03/15 10:55:20;;;;;;;7.07;0.50;;;10.90;96.10;;;;;;5024527;28;20155;-41
2023/03/15 10:58:00;;;;;;;3.55;0.35;;;10.70;92.60;;;;;;5049953;28;20116;-42
2023/03/15 11:00:35;;;;;;;4.63;0.40;;;10.80;98.20;;;;;;5049872;28;20045;-41
2023/03/15 11:03:01;;;;;;;5.22;0.35;;;10.50;93.90;;;;;;5049986;28;20048;-41
2023/03/15 11:05:36;;;;;;;5.15;0.68;;;11.20;93.90;;;;;;5050289;28;20064;-43
2023/03/15 11:08:02;;;;;;;3.50;0.20;;;11.10;93.00;;;;;;5050289;28;20041;-41
2023/03/15 11:10:33;;;;;;;5.45;1.75;;;10.60;90.50;;;;;;5049831;28;20102;-41
2023/03/15 11:13:29;;;;;;;4.70;0.70;;;10.40;91.10;;;;;;5049805;28;20482;-41
2023/03/15 11:16:04;;;;;;;7.70;0.47;;;10.00;93.00;;;;;;5028801;28;20149;-41
2023/03/15 11:18:52;;;;;;;8.90;0.50;;;9.80;93.30;;;;;;5049375;28;20889;-41
2023/03/15 11:21:19;;;;;;;7.97;0.52;;;9.80;93.30;;;;;;5049428;28;20048;-42
2023/03/15 11:23:48;;;;;;;3.65;0.50;;;10.00;94.10;;;;;;5049666;28;20033;-41
2023/03/15 11:26:23;;;;;;;4.50;0.57;;;10.20;94.30;;;;;;5049684;28;20073;-41
2023/03/15 11:28:57;;;;;;;5.55;0.30;;;9.70;94.70;;;;;;5049494;28;20135;-42
2023/03/15 11:31:26;;;;;;;3.30;0.20;;;9.90;94.20;;;;;;5049197;28;20060;-41
2023/03/15 11:33:59;;;;;;;11.20;0.50;;;9.80;94.00;;;;;;5050033;28;20033;-41
2023/03/15 11:36:29;;;;;;;5.57;0.45;;;9.80;94.30;;;;;;5049941;28;20090;-41
2023/03/15 11:38:55;;;;;;;5.80;0.40;;;10.20;94.10;;;;;;5049996;28;20103;-41
2023/03/15 11:41:31;;;;;;;5.20;0.40;;;9.70;93.60;;;;;;5049955;28;20049;-41
2023/03/15 11:44:32;;;;;;;4.15;0.50;;;9.90;93.80;;;;;;5049747;28;20041;-41
2023/03/15 11:47:13;;;;;;;4.07;0.40;;;9.20;93.90;;;;;;5058791;28;20057;-42
2023/03/15 11:49:55;;;;;;;3.42;0.30;;;9.10;93.60;;;;;;5069084;28;20044;-41
2023/03/15 11:52:26;;;;;;;3.83;0.40;;;9.10;93.60;;;;;;5068863;28;20048;-41
2023/03/15 11:54:57;;;;;;;5.65;0.30;;;9.20;94.00;;;;;;5069286;28;20069;-41
2023/03/15 11:57:29;;;;;;;2.00;0.15;;;9.30;95.90;;;;;;5068589;28;20797;-42
2023/03/15 12:00:15;;;;;;;7.05;0.70;;;8.90;95.20;;;;;;5067969;28;20652;-40
2023/03/15 12:02:54;;;;;;;5.28;0.20;;;8.50;99.90;;;;;;5068203;28;20036;-39
2023/03/15 12:05:41;;;;;;;3.05;0.40;;;8.40;95.90;;;;;;5054453;28;20036;-40
2023/03/15 12:08:33;;;;;;;4.28;0.20;;;8.30;96.50;;;;;;5061231;28;20101;-39
2023/03/15 12:10:59;;;;;;;4.82;0.30;;;8.40;96.10;;;;;;5045801;28;20028;-38
2023/03/15 12:13:28;;;;;;;6.25;0.63;;;8.40;96.60;;;;;;5064512;28;20470;-38
2023/03/15 12:15:54;;;;;;;2.28;0.25;;;8.90;96.70;;;;;;5046609;28;20094;-38
2023/03/15 12:18:43;;;;;;;4.22;0.50;;;8.90;97.10;;;;;;5065156;28;20123;-38
2023/03/15 12:21:21;;;;;;;3.28;0.28;;;8.70;95.90;;;;;;5065569;28;20036;-37
2023/03/15 12:24:05;;;;;;;5.43;1.20;;;8.60;94.90;;;;;;5047644;28;20049;-37
2023/03/15 12:26:36;;;;;;;1.27;0.13;;;8.70;95.70;;;;;;5044226;28;20055;-37
2023/03/15 12:29:13;;;;;;;6.13;0.50;;;8.80;93.50;;;;;;5064085;28;20108;-38
2023/03/15 12:31:51;;;;;;;4.90;0.68;;;9.00;93.80;;;;;;5065065;28;20281;-38
2023/03/15 12:34:38;;;;;;;7.05;1.80;;;9.60;95.50;;;;;;5065554;28;20048;-38
2023/03/15 12:37:11;;;;;;;7.32;0.63;;;9.20;94.30;;;;;;5065822;28;20070;-38
2023/03/15 12:39:47;;;;;;;2.95;0.30;;;8.60;95.50;;;;;;5047095;28;20056;-38
2023/03/15 12:42:31;;;;;;;5.55;0.45;;;8.50;94.60;;;;;;5065256;28;20313;-38
2023/03/15 12:45:15;;;;;;;4.00;0.38;;;8.70;95.80;;;;;;5064582;28;20050;-37
2023/03/15 12:47:51;;;;;;;6.50;0.40;;;9.10;95.70;;;;;;5049281;28;20731;-41
2023/03/15 12:50:51;;;;;;;7.95;1.08;;;8.60;94.00;;;;;;5045105;28;20053;-40
2023/03/15 12:53:22;;;;;;;4.95;0.32;;;8.40;94.80;;;;;;5045315;28;20118;-40
2023/03/15 12:55:50;;;;;;;4.80;0.40;;;8.30;94.30;;;;;;5044636;28;20127;-39
2023/03/15 12:58:19;;;;;;;3.08;0.30;;;8.40;96.30;;;;;;5044846;28;20438;-39
2023/03/15 13:00:45;;;;;;;6.43;0.30;;;8.40;95.80;;;;;;5008074;28;20082;-38
2023/03/15 13:03:16;;;;;;;3.75;0.32;;;7.90;95.50;;;;;;5010726;28;20045;-39